Time,TemperatureF,DewpointF,PressureIn,WindDirection,WindDirectionDegrees,WindSpeedMPH,WindSpeedGustMPH,Humidity,HourlyPrecipIn,Conditions,Clouds,dailyrainin,SolarRadiationWatts/m^2,SoftwareType,DateUTC
2013-08-20 00:03:00,66.0,61.0,29.89,West,273,2.3,2.3,84,0.00,CLR,,0.00,0.0,WeatherDisplay:10.37,2013-08-20 07:03:00,
2013-08-20 00:08:00,65.9,60.9,29.89,West,273,3.5,3.5,84,0.00,CLR,,0.00,0.0,WeatherDisplay:10.37,2013-08-20 07:08:00,
2013-08-20 00:13:00,65.9,60.9,29.89,West,273,3.5,3.5,84,0.00,CLR,,0.00,0.0,WeatherDisplay:10.37,2013-08-20 07:13:00,
2013-08-20 00:18:00,65.9,60.9,29.89,West,273,3.5,3.5,84,0.00,CLR,,0.00,0.0,WeatherDisplay:10.37,2013-08-20 07:18:00,
2013-08-20 00:23:00,65.8,60.8,29.89,West,273,3.5,3.5,84,0.00,CLR,,0.00,0.0,WeatherDisplay:10.37,2013-08-20 07:23:00,
2013-08-20 00:28:00,65.8,61.2,29.89,West,273,3.5,3.5,85,0.00,CLR,,0.00,0.0,WeatherDisplay:10.37,2013-08-20 07:28:00,
2013-08-20 00:33:00,65.7,61.1,29.89,West,273,4.0,4.0,85,0.00,CLR,,0.00,0.0,WeatherDisplay:10.37,2013-08-20 07:33:00,
2013-08-20 00:38:00,65.6,61.0,29.89,West,273,3.0,3.0,85,0.00,CLR,,0.00,0.0,WeatherDisplay:10.37,2013-08-20 07:38:00,
2013-08-20 00:43:00,65.5,61.2,29.89,West,273,3.5,3.5,86,0.00,CLR,,0.00,0.0,WeatherDisplay:10.37,2013-08-20 07:43:00,
2013-08-20 00:48:00,65.5,61.2,29.89,West,273,3.5,3.5,86,0.00,CLR,,0.00,0.0,WeatherDisplay:10.37,2013-08-20 07:48:00,
2013-08-20 00:53:00,65.4,61.1,29.89,West,273,2.3,2.3,86,0.00,CLR,,0.00,0.0,WeatherDisplay:10.37,2013-08-20 07:53:00,
2013-08-20 00:58:00,65.4,61.1,29.89,West,273,3.5,3.5,86,0.00,CLR,,0.00,0.0,WeatherDisplay:10.37,2013-08-20 07:58:00,
2013-08-20 01:03:00,65.3,61.0,29.89,West,273,3.5,3.5,86,0.00,CLR,,0.00,0.0,WeatherDisplay:10.37,2013-08-20 08:03:00,
2013-08-20 01:08:00,65.3,61.0,29.89,West,273,4.0,4.0,86,0.00,CLR,,0.00,0.0,WeatherDisplay:10.37,2013-08-20 08:08:00,
2013-08-20 01:13:00,65.3,61.0,29.89,West,271,4.0,4.0,86,0.00,CLR,,0.00,0.0,WeatherDisplay:10.37,2013-08-20 08:13:00,
2013-08-20 01:18:00,65.2,61.2,29.89,West,277,4.6,4.6,87,0.00,CLR,,0.00,0.0,WeatherDisplay:10.37,2013-08-20 08:18:00,
2013-08-20 01:23:00,65.1,61.1,29.89,West,275,4.6,4.6,87,0.00,CLR,,0.00,0.0,WeatherDisplay:10.37,2013-08-20 08:23:00,
2013-08-20 01:28:00,65.1,61.1,29.89,West,279,3.5,3.5,87,0.00,CLR,,0.00,0.0,WeatherDisplay:10.37,2013-08-20 08:28:00,
2013-08-20 01:33:00,65.0,61.0,29.89,West,278,3.0,3.0,87,0.00,CLR,,0.00,0.0,WeatherDisplay:10.37,2013-08-20 08:33:00,
2013-08-20 01:38:00,65.0,61.0,29.89,West,274,3.5,3.5,87,0.00,CLR,,0.00,0.0,WeatherDisplay:10.37,2013-08-20 08:38:00,
2013-08-20 01:43:00,65.0,61.0,29.89,West,274,3.5,3.5,87,0.00,CLR,,0.00,0.0,WeatherDisplay:10.37,2013-08-20 08:43:00,
2013-08-20 01:48:00,64.9,60.9,29.89,West,275,2.3,2.3,87,0.00,CLR,,0.00,0.0,WeatherDisplay:10.37,2013-08-20 08:48:00,
2013-08-20 01:53:00,64.8,60.8,29.89,West,277,4.0,4.0,87,0.00,CLR,,0.00,0.0,WeatherDisplay:10.37,2013-08-20 08:53:00,
2013-08-20 01:58:00,64.8,60.8,29.89,West,279,4.0,4.0,87,0.00,CLR,,0.00,0.0,WeatherDisplay:10.37,2013-08-20 08:58:00,
2013-08-20 02:03:00,64.8,60.8,29.89,West,278,4.0,4.0,87,0.00,CLR,,0.00,0.0,WeatherDisplay:10.37,2013-08-20 09:03:00,
2013-08-20 02:08:00,64.8,60.8,29.89,West,278,4.0,4.0,87,0.00,CLR,,0.00,0.0,WeatherDisplay:10.37,2013-08-20 09:08:00,
2013-08-20 02:13:00,64.8,60.8,29.89,West,278,3.5,3.5,87,0.00,CLR,,0.00,0.0,WeatherDisplay:10.37,2013-08-20 09:13:00,
2013-08-20 02:18:00,64.7,60.7,29.89,West,278,3.5,3.5,87,0.00,CLR,,0.00,0.0,WeatherDisplay:10.37,2013-08-20 09:18:00,
2013-08-20 02:23:00,64.7,61.1,29.89,West,278,3.5,3.5,88,0.00,CLR,,0.00,0.0,WeatherDisplay:10.37,2013-08-20 09:23:00,
2013-08-20 02:28:00,64.7,60.7,29.89,West,278,3.5,3.5,87,0.00,CLR,,0.00,0.0,WeatherDisplay:10.37,2013-08-20 09:28:00,
2013-08-20 02:33:00,64.8,60.8,29.89,West,278,3.5,3.5,87,0.00,CLR,,0.00,0.0,WeatherDisplay:10.37,2013-08-20 09:33:00,
2013-08-20 02:38:00,64.8,60.8,29.89,West,278,3.0,3.0,87,0.00,CLR,,0.00,0.0,WeatherDisplay:10.37,2013-08-20 09:38:00,
2013-08-20 02:43:00,64.8,60.8,29.89,West,278,2.3,2.3,87,0.00,CLR,,0.00,0.0,WeatherDisplay:10.37,2013-08-20 09:43:00,
2013-08-20 02:48:00,64.8,60.8,29.89,West,279,2.3,2.3,87,0.00,CLR,,0.00,0.0,WeatherDisplay:10.37,2013-08-20 09:48:00,
2013-08-20 02:53:00,64.8,60.8,29.89,West,281,3.0,3.0,87,0.00,CLR,,0.00,0.0,WeatherDisplay:10.37,2013-08-20 09:53:00,
2013-08-20 02:58:00,64.7,60.7,29.89,West,281,5.0,5.0,87,0.00,CLR,,0.00,0.0,WeatherDisplay:10.37,2013-08-20 09:58:00,
2013-08-20 03:03:00,64.7,60.7,29.89,West,281,3.5,3.5,87,0.00,CLR,,0.00,0.0,WeatherDisplay:10.37,2013-08-20 10:03:00,
2013-08-20 03:08:00,64.6,60.6,29.88,West,279,5.0,5.0,87,0.00,CLR,,0.00,0.0,WeatherDisplay:10.37,2013-08-20 10:08:00,
2013-08-20 03:13:00,64.6,60.6,29.89,West,272,3.5,3.5,87,0.00,CLR,,0.00,0.0,WeatherDisplay:10.37,2013-08-20 10:13:00,
2013-08-20 03:18:00,64.6,60.6,29.88,West,272,4.0,4.0,87,0.00,CLR,,0.00,0.0,WeatherDisplay:10.37,2013-08-20 10:18:00,
2013-08-20 03:23:00,64.6,60.6,29.88,West,272,3.5,3.5,87,0.00,CLR,,0.00,0.0,WeatherDisplay:10.37,2013-08-20 10:23:00,
2013-08-20 03:28:00,64.7,60.7,29.88,West,272,3.5,3.5,87,0.00,CLR,,0.00,0.0,WeatherDisplay:10.37,2013-08-20 10:28:00,
2013-08-20 03:33:00,64.7,60.7,29.88,West,272,3.0,3.0,87,0.00,CLR,,0.00,0.0,WeatherDisplay:10.37,2013-08-20 10:33:00,
2013-08-20 03:38:00,64.6,60.6,29.88,West,272,1.0,1.0,87,0.00,CLR,,0.00,0.0,WeatherDisplay:10.37,2013-08-20 10:38:00,
2013-08-20 03:43:00,64.6,60.6,29.88,West,272,2.3,2.3,87,0.00,CLR,,0.00,0.0,WeatherDisplay:10.37,2013-08-20 10:43:00,
2013-08-20 03:48:00,64.7,60.7,29.88,West,272,3.0,3.0,87,0.00,CLR,,0.00,0.0,WeatherDisplay:10.37,2013-08-20 10:48:00,
2013-08-20 03:53:00,64.6,60.6,29.88,West,272,3.5,3.5,87,0.00,CLR,,0.00,0.0,WeatherDisplay:10.37,2013-08-20 10:53:00,
2013-08-20 03:58:00,64.5,60.9,29.88,West,272,2.0,2.0,88,0.00,CLR,,0.00,0.0,WeatherDisplay:10.37,2013-08-20 10:58:00,
2013-08-20 04:03:00,64.5,60.9,29.88,West,276,4.0,4.0,88,0.00,CLR,,0.00,0.0,WeatherDisplay:10.37,2013-08-20 11:03:00,
2013-08-20 04:08:00,64.5,60.9,29.88,West,276,2.3,2.3,88,0.00,CLR,,0.00,0.0,WeatherDisplay:10.37,2013-08-20 11:08:00,
2013-08-20 04:13:00,64.5,60.9,29.88,West,276,1.2,0.0,88,0.00,CLR,,0.00,0.0,WeatherDisplay:10.37,2013-08-20 11:13:00,
2013-08-20 04:18:00,64.5,60.9,29.88,West,275,3.5,3.5,88,0.00,CLR,,0.00,0.0,WeatherDisplay:10.37,2013-08-20 11:18:00,
2013-08-20 04:23:00,64.5,60.9,29.88,West,273,5.0,5.0,88,0.00,CLR,,0.00,0.0,WeatherDisplay:10.37,2013-08-20 11:23:00,
2013-08-20 04:28:00,64.4,60.8,29.88,West,271,2.3,0.0,88,0.00,CLR,,0.00,0.0,WeatherDisplay:10.37,2013-08-20 11:28:00,
2013-08-20 04:33:00,64.4,60.8,29.88,West,271,2.3,2.3,88,0.00,CLR,,0.00,0.0,WeatherDisplay:10.37,2013-08-20 11:33:00,
2013-08-20 04:38:00,64.4,60.8,29.88,West,271,3.0,3.0,88,0.00,CLR,,0.00,0.0,WeatherDisplay:10.37,2013-08-20 11:38:00,
2013-08-20 04:43:00,64.5,60.9,29.88,West,273,4.0,4.0,88,0.00,CLR,,0.00,0.0,WeatherDisplay:10.37,2013-08-20 11:43:00,
2013-08-20 04:48:00,64.4,60.8,29.87,West,274,3.5,3.5,88,0.00,CLR,,0.00,0.0,WeatherDisplay:10.37,2013-08-20 11:48:00,
2013-08-20 04:53:00,64.4,60.8,29.87,West,274,2.3,2.3,88,0.00,CLR,,0.00,0.0,WeatherDisplay:10.37,2013-08-20 11:53:00,
2013-08-20 04:58:00,64.4,60.8,29.88,West,274,2.3,2.3,88,0.00,CLR,,0.00,0.0,WeatherDisplay:10.37,2013-08-20 11:58:00,
2013-08-20 05:03:00,64.4,60.8,29.88,West,277,4.0,4.0,88,0.00,CLR,,0.00,0.0,WeatherDisplay:10.37,2013-08-20 12:03:00,
2013-08-20 05:08:00,64.3,60.7,29.87,WNW,283,2.3,2.3,88,0.00,CLR,,0.00,0.0,WeatherDisplay:10.37,2013-08-20 12:08:00,
2013-08-20 05:13:00,64.2,60.6,29.88,WNW,283,1.2,1.2,88,0.00,CLR,,0.00,0.0,WeatherDisplay:10.37,2013-08-20 12:13:00,
2013-08-20 05:18:00,64.1,60.5,29.88,WNW,283,1.2,0.0,88,0.00,CLR,,0.00,0.0,WeatherDisplay:10.37,2013-08-20 12:18:00,
2013-08-20 05:23:00,64.1,60.5,29.88,WNW,283,1.2,1.2,88,0.00,CLR,,0.00,0.0,WeatherDisplay:10.37,2013-08-20 12:23:00,
2013-08-20 05:28:00,64.1,60.5,29.88,WNW,283,1.2,0.0,88,0.00,CLR,,0.00,0.0,WeatherDisplay:10.37,2013-08-20 12:28:00,
2013-08-20 05:33:00,64.1,60.5,29.88,WNW,283,1.2,1.2,88,0.00,CLR,,0.00,0.0,WeatherDisplay:10.37,2013-08-20 12:33:00,
2013-08-20 05:38:00,64.1,60.5,29.88,WNW,283,2.0,2.0,88,0.00,CLR,,0.00,0.0,WeatherDisplay:10.37,2013-08-20 12:38:00,
2013-08-20 05:43:00,64.1,60.5,29.88,WNW,283,3.5,3.5,88,0.00,CLR,,0.00,0.0,WeatherDisplay:10.37,2013-08-20 12:43:00,
2013-08-20 05:48:00,64.1,60.5,29.88,WNW,288,4.0,4.0,88,0.00,CLR,,0.00,0.0,WeatherDisplay:10.37,2013-08-20 12:48:00,
2013-08-20 05:53:00,64.1,60.5,29.88,WNW,288,4.0,4.0,88,0.00,CLR,,0.00,0.0,WeatherDisplay:10.37,2013-08-20 12:53:00,
2013-08-20 05:58:00,64.0,60.4,29.88,WNW,286,4.0,4.0,88,0.00,CLR,,0.00,0.0,WeatherDisplay:10.37,2013-08-20 12:58:00,
2013-08-20 06:03:00,64.0,60.4,29.88,WNW,286,3.5,3.5,88,0.00,CLR,,0.00,0.0,WeatherDisplay:10.37,2013-08-20 13:03:00,
2013-08-20 06:08:00,64.1,60.5,29.89,West,281,4.6,4.6,88,0.00,CLR,,0.00,0.0,WeatherDisplay:10.37,2013-08-20 13:08:00,
2013-08-20 06:13:00,64.1,60.5,29.89,NW,310,4.6,4.6,88,0.00,CLR,,0.00,0.0,WeatherDisplay:10.37,2013-08-20 13:13:00,
2013-08-20 06:18:00,64.1,60.5,29.89,NW,310,3.5,3.5,88,0.00,CLR,,0.00,0.0,WeatherDisplay:10.37,2013-08-20 13:18:00,
2013-08-20 06:23:00,64.1,60.5,29.89,NW,309,4.0,4.0,88,0.00,CLR,,0.00,0.0,WeatherDisplay:10.37,2013-08-20 13:23:00,
2013-08-20 06:28:00,64.1,60.5,29.89,NW,304,3.5,3.5,88,0.00,CLR,,0.00,0.0,WeatherDisplay:10.37,2013-08-20 13:28:00,
2013-08-20 06:33:00,64.1,60.5,29.89,WNW,302,4.0,4.0,88,0.00,BKN,,0.00,5.0,WeatherDisplay:10.37,2013-08-20 13:33:00,
2013-08-20 06:38:00,64.1,60.5,29.89,WNW,298,4.0,4.0,88,0.00,BKN,,0.00,9.0,WeatherDisplay:10.37,2013-08-20 13:38:00,
2013-08-20 06:43:00,64.1,60.5,29.89,WNW,297,3.5,3.5,88,0.00,BKN,,0.00,16.0,WeatherDisplay:10.37,2013-08-20 13:43:00,
2013-08-20 06:48:00,64.2,60.6,29.90,WNW,297,3.5,3.5,88,0.00,BKN,,0.00,19.0,WeatherDisplay:10.37,2013-08-20 13:48:00,
2013-08-20 06:53:00,64.2,60.2,29.89,WNW,290,4.6,4.6,87,0.00,BKN,,0.00,23.0,WeatherDisplay:10.37,2013-08-20 13:53:00,
2013-08-20 06:58:00,64.1,60.5,29.89,WNW,288,4.0,4.0,88,0.00,BKN,,0.00,30.0,WeatherDisplay:10.37,2013-08-20 13:58:00,
2013-08-20 07:04:00,64.1,60.5,29.90,WNW,288,1.2,1.2,88,0.00,BKN,,0.00,35.0,WeatherDisplay:10.37,2013-08-20 14:04:00,
2013-08-20 07:09:00,64.2,60.6,29.90,WNW,288,2.3,2.3,88,0.00,BKN,,0.00,46.0,WeatherDisplay:10.37,2013-08-20 14:09:00,
2013-08-20 07:14:00,64.2,60.6,29.90,WNW,286,4.0,4.0,88,0.00,BKN,,0.00,46.0,WeatherDisplay:10.37,2013-08-20 14:14:00,
2013-08-20 07:19:00,64.1,60.5,29.90,WNW,286,2.3,2.3,88,0.00,BKN,,0.00,42.0,WeatherDisplay:10.37,2013-08-20 14:19:00,
2013-08-20 07:24:00,64.1,60.5,29.91,WNW,286,3.5,3.5,88,0.00,BKN,,0.00,23.0,WeatherDisplay:10.37,2013-08-20 14:24:00,
2013-08-20 07:29:00,64.1,60.5,29.91,WNW,286,1.2,1.2,88,0.00,BKN,,0.00,44.0,WeatherDisplay:10.37,2013-08-20 14:29:00,
2013-08-20 07:34:00,64.1,60.5,29.91,WNW,286,3.5,3.5,88,0.00,BKN,,0.00,19.0,WeatherDisplay:10.37,2013-08-20 14:34:00,
2013-08-20 07:39:00,64.1,60.5,29.91,WNW,286,2.3,2.3,88,0.00,BKN,,0.00,58.0,WeatherDisplay:10.37,2013-08-20 14:39:00,
2013-08-20 07:44:00,64.1,60.5,29.91,WNW,284,0.0,0.0,88,0.00,BKN,,0.00,72.0,WeatherDisplay:10.37,2013-08-20 14:44:00,
2013-08-20 07:49:00,64.1,60.5,29.91,WNW,285,3.0,3.0,88,0.00,BKN,,0.00,60.0,WeatherDisplay:10.37,2013-08-20 14:49:00,
2013-08-20 07:54:00,64.1,60.5,29.91,WNW,285,1.2,1.2,88,0.00,BKN,,0.00,84.0,WeatherDisplay:10.37,2013-08-20 14:54:00,
2013-08-20 07:59:00,64.2,60.6,29.91,WNW,285,1.2,0.0,88,0.00,BKN,,0.00,90.0,WeatherDisplay:10.37,2013-08-20 14:59:00,
2013-08-20 08:04:00,64.4,60.8,29.91,WNW,286,3.5,3.5,88,0.00,BKN,,0.00,102.0,WeatherDisplay:10.37,2013-08-20 15:04:00,
2013-08-20 08:09:00,64.4,60.8,29.91,WNW,286,1.2,1.2,88,0.00,BKN,,0.00,86.0,WeatherDisplay:10.37,2013-08-20 15:09:00,
2013-08-20 08:14:00,64.5,60.9,29.91,WNW,286,1.2,1.2,88,0.00,BKN,,0.00,123.0,WeatherDisplay:10.37,2013-08-20 15:14:00,
2013-08-20 08:19:00,64.6,60.6,29.92,WNW,282,2.3,2.3,87,0.00,BKN,,0.00,113.0,WeatherDisplay:10.37,2013-08-20 15:19:00,
2013-08-20 08:24:00,64.6,60.6,29.92,WNW,282,4.0,4.0,87,0.00,BKN,,0.00,144.0,WeatherDisplay:10.37,2013-08-20 15:24:00,
2013-08-20 08:29:00,64.8,60.8,29.91,WNW,285,3.5,3.5,87,0.00,BKN,,0.00,151.0,WeatherDisplay:10.37,2013-08-20 15:29:00,
2013-08-20 08:34:00,65.0,61.0,29.91,WNW,287,4.0,4.0,87,0.00,BKN,,0.00,169.0,WeatherDisplay:10.37,2013-08-20 15:34:00,
2013-08-20 08:39:00,65.0,60.7,29.91,WNW,284,1.2,0.0,86,0.00,BKN,,0.00,176.0,WeatherDisplay:10.37,2013-08-20 15:39:00,
2013-08-20 08:44:00,65.2,60.9,29.91,WNW,283,3.0,3.0,86,0.00,BKN,,0.00,179.0,WeatherDisplay:10.37,2013-08-20 15:44:00,
2013-08-20 08:49:00,65.4,61.1,29.91,WNW,285,5.0,5.0,86,0.00,BKN,,0.00,211.0,WeatherDisplay:10.37,2013-08-20 15:49:00,
2013-08-20 08:54:00,65.6,61.3,29.91,WNW,285,2.3,2.3,86,0.00,BKN,,0.00,213.0,WeatherDisplay:10.37,2013-08-20 15:54:00,
2013-08-20 08:59:00,65.7,61.1,29.92,WNW,296,4.0,4.0,85,0.00,SCT,,0.00,253.0,WeatherDisplay:10.37,2013-08-20 15:59:00,
2013-08-20 09:04:00,65.9,61.3,29.92,WNW,295,2.3,2.3,85,0.00,BKN,,0.00,265.0,WeatherDisplay:10.37,2013-08-20 16:04:00,
2013-08-20 09:09:00,66.2,61.6,29.92,WNW,295,3.5,3.5,85,0.00,SCT,,0.00,283.0,WeatherDisplay:10.37,2013-08-20 16:09:00,
2013-08-20 09:14:00,66.7,61.7,29.92,WNW,289,3.5,3.5,84,0.00,BKN,,0.00,257.0,WeatherDisplay:10.37,2013-08-20 16:14:00,
2013-08-20 09:19:00,67.0,61.3,29.92,SSW,211,5.0,5.0,82,0.00,BKN,,0.00,251.0,WeatherDisplay:10.37,2013-08-20 16:19:00,
2013-08-20 09:24:00,67.0,61.3,29.92,WSW,237,4.6,4.6,82,0.00,BKN,,0.00,292.0,WeatherDisplay:10.37,2013-08-20 16:24:00,
2013-08-20 09:29:00,67.2,61.5,29.92,SSE,153,4.6,4.6,82,0.00,SCT,,0.00,431.0,WeatherDisplay:10.37,2013-08-20 16:29:00,
2013-08-20 09:34:00,67.3,61.6,29.92,SSW,192,6.0,6.0,82,0.00,SCT,,0.00,501.0,WeatherDisplay:10.37,2013-08-20 16:34:00,
2013-08-20 09:39:00,67.5,61.5,29.92,WSW,247,4.6,4.6,81,0.00,CLR,,0.00,640.0,WeatherDisplay:10.37,2013-08-20 16:39:00,
2013-08-20 09:44:00,67.9,61.9,29.92,SW,234,5.8,5.8,81,0.00,CLR,,0.00,605.0,WeatherDisplay:10.37,2013-08-20 16:44:00,
2013-08-20 09:49:00,68.1,61.7,29.92,WSW,250,5.0,5.0,80,0.00,CLR,,0.00,598.0,WeatherDisplay:10.37,2013-08-20 16:49:00,
2013-08-20 09:54:00,68.6,62.2,29.92,West,281,7.0,7.0,80,0.00,SCT,,0.00,591.0,WeatherDisplay:10.37,2013-08-20 16:54:00,
2013-08-20 09:59:00,68.6,62.2,29.93,West,279,3.5,3.5,80,0.00,FEW,,0.00,598.0,WeatherDisplay:10.37,2013-08-20 16:59:00,
2013-08-20 10:04:00,69.0,61.9,29.92,SW,223,4.6,4.6,78,0.00,FEW,,0.00,596.0,WeatherDisplay:10.37,2013-08-20 17:04:00,
2013-08-20 10:09:00,69.2,62.0,29.92,West,259,6.9,6.9,78,0.00,FEW,,0.00,596.0,WeatherDisplay:10.37,2013-08-20 17:09:00,
2013-08-20 10:14:00,69.4,61.9,29.92,WNW,284,7.0,7.0,77,0.00,FEW,,0.00,622.0,WeatherDisplay:10.37,2013-08-20 17:14:00,
2013-08-20 10:19:00,69.3,62.1,29.92,West,276,6.9,6.9,78,0.00,FEW,,0.00,633.0,WeatherDisplay:10.37,2013-08-20 17:19:00,
2013-08-20 10:24:00,69.5,62.0,29.92,WSW,253,4.0,4.0,77,0.00,FEW,,0.00,643.0,WeatherDisplay:10.37,2013-08-20 17:24:00,
2013-08-20 10:29:00,70.0,62.1,29.92,WSW,250,6.0,6.0,76,0.00,FEW,,0.00,650.0,WeatherDisplay:10.37,2013-08-20 17:29:00,
2013-08-20 10:34:00,70.3,62.4,29.92,SW,214,3.5,3.5,76,0.00,FEW,,0.00,670.0,WeatherDisplay:10.37,2013-08-20 17:34:00,
2013-08-20 10:39:00,70.9,62.6,29.92,WSW,254,2.3,2.3,75,0.00,FEW,,0.00,675.0,WeatherDisplay:10.37,2013-08-20 17:39:00,
2013-08-20 10:44:00,71.5,62.4,29.92,WSW,249,4.0,4.0,73,0.00,FEW,,0.00,687.0,WeatherDisplay:10.37,2013-08-20 17:44:00,
2013-08-20 10:49:00,71.5,62.0,29.92,WSW,251,4.0,4.0,72,0.00,FEW,,0.00,700.0,WeatherDisplay:10.37,2013-08-20 17:49:00,
2013-08-20 10:54:00,71.8,62.3,29.92,NW,304,3.5,3.5,72,0.00,FEW,,0.00,707.0,WeatherDisplay:10.37,2013-08-20 17:54:00,
2013-08-20 10:59:00,72.0,62.5,29.92,NW,304,2.3,2.3,72,0.00,FEW,,0.00,721.0,WeatherDisplay:10.37,2013-08-20 17:59:00,
2013-08-20 11:04:00,72.8,62.8,29.92,South,184,6.9,6.9,71,0.00,FEW,,0.00,728.0,WeatherDisplay:10.37,2013-08-20 18:04:00,
2013-08-20 11:09:00,73.4,62.6,29.92,South,184,3.0,3.0,69,0.00,FEW,,0.00,735.0,WeatherDisplay:10.37,2013-08-20 18:09:00,
2013-08-20 11:14:00,73.9,62.2,29.92,WSW,250,5.8,5.8,67,0.00,FEW,,0.00,747.0,WeatherDisplay:10.37,2013-08-20 18:14:00,
2013-08-20 11:19:00,74.0,62.3,29.92,WSW,241,2.0,2.0,67,0.00,FEW,,0.00,752.0,WeatherDisplay:10.37,2013-08-20 18:19:00,
2013-08-20 11:24:00,74.2,63.0,29.91,SSW,205,6.9,6.9,68,0.00,FEW,,0.00,759.0,WeatherDisplay:10.37,2013-08-20 18:24:00,
2013-08-20 11:29:00,74.6,62.5,29.91,South,169,3.5,3.5,66,0.00,FEW,,0.00,766.0,WeatherDisplay:10.37,2013-08-20 18:29:00,
2013-08-20 11:34:00,75.0,62.9,29.91,South,169,5.8,5.8,66,0.00,FEW,,0.00,772.0,WeatherDisplay:10.37,2013-08-20 18:34:00,
2013-08-20 11:39:00,75.5,62.9,29.91,SSW,207,6.0,6.0,65,0.00,FEW,,0.00,779.0,WeatherDisplay:10.37,2013-08-20 18:39:00,
2013-08-20 11:44:00,75.9,63.3,29.91,West,269,8.1,8.1,65,0.00,FEW,,0.00,782.0,WeatherDisplay:10.37,2013-08-20 18:44:00,
2013-08-20 11:49:00,76.1,63.0,29.91,WSW,249,5.0,5.0,64,0.00,FEW,,0.00,795.0,WeatherDisplay:10.37,2013-08-20 18:49:00,
2013-08-20 11:54:00,76.4,62.9,29.90,NW,306,5.8,5.8,63,0.00,FEW,,0.00,798.0,WeatherDisplay:10.37,2013-08-20 18:54:00,
2013-08-20 11:59:00,76.2,63.1,29.90,WNW,287,8.1,8.1,64,0.00,FEW,,0.00,802.0,WeatherDisplay:10.37,2013-08-20 18:59:00,
2013-08-20 12:04:00,76.4,63.3,29.90,West,268,4.6,4.6,64,0.00,FEW,,0.00,803.0,WeatherDisplay:10.37,2013-08-20 19:04:00,
2013-08-20 12:09:00,76.8,63.2,29.90,SSW,192,6.0,6.0,63,0.00,FEW,,0.00,810.0,WeatherDisplay:10.37,2013-08-20 19:09:00,
2013-08-20 12:14:00,77.1,63.1,29.90,SW,225,8.0,8.0,62,0.00,FEW,,0.00,812.0,WeatherDisplay:10.37,2013-08-20 19:14:00,
2013-08-20 12:19:00,77.3,63.3,29.90,SW,234,4.0,4.0,62,0.00,FEW,,0.00,816.0,WeatherDisplay:10.37,2013-08-20 19:19:00,
2013-08-20 12:24:00,77.6,63.5,29.89,WSW,252,6.9,6.9,62,0.00,FEW,,0.00,817.0,WeatherDisplay:10.37,2013-08-20 19:24:00,
2013-08-20 12:29:00,78.1,63.1,29.89,West,277,8.1,8.1,60,0.00,FEW,,0.00,821.0,WeatherDisplay:10.37,2013-08-20 19:29:00,
2013-08-20 12:34:00,78.4,63.4,29.89,SSW,208,6.9,6.9,60,0.00,FEW,,0.00,824.0,WeatherDisplay:10.37,2013-08-20 19:34:00,
2013-08-20 12:39:00,78.6,63.1,29.88,South,178,7.0,7.0,59,0.00,FEW,,0.00,824.0,WeatherDisplay:10.37,2013-08-20 19:39:00,
2013-08-20 12:44:00,78.7,63.6,29.88,WNW,294,6.9,6.9,60,0.00,FEW,,0.00,830.0,WeatherDisplay:10.37,2013-08-20 19:44:00,
2013-08-20 12:49:00,78.7,62.7,29.88,West,277,6.9,6.9,58,0.00,FEW,,0.00,828.0,WeatherDisplay:10.37,2013-08-20 19:49:00,
2013-08-20 12:54:00,79.1,63.5,29.88,WSW,254,8.1,8.1,59,0.00,FEW,,0.00,826.0,WeatherDisplay:10.37,2013-08-20 19:54:00,
2013-08-20 12:59:00,79.5,63.4,29.88,SSW,209,7.0,7.0,58,0.00,FEW,,0.00,830.0,WeatherDisplay:10.37,2013-08-20 19:59:00,
2013-08-20 13:04:00,79.5,62.9,29.88,SW,221,7.0,7.0,57,0.00,FEW,,0.00,828.0,WeatherDisplay:10.37,2013-08-20 20:04:00,
2013-08-20 13:09:00,79.6,63.0,29.87,WNW,291,10.0,10.0,57,0.00,FEW,,0.00,828.0,WeatherDisplay:10.37,2013-08-20 20:09:00,
2013-08-20 13:14:00,79.5,63.4,29.87,SSW,205,6.0,6.0,58,0.00,FEW,,0.00,828.0,WeatherDisplay:10.37,2013-08-20 20:14:00,
2013-08-20 13:19:00,80.3,63.2,29.87,West,280,6.9,6.9,56,0.00,FEW,,0.00,821.0,WeatherDisplay:10.37,2013-08-20 20:19:00,
2013-08-20 13:24:00,81.1,63.4,29.87,SW,233,4.0,4.0,55,0.00,FEW,,0.00,823.0,WeatherDisplay:10.37,2013-08-20 20:24:00,
2013-08-20 13:29:00,81.8,63.5,29.87,WNW,283,10.4,10.4,54,0.00,FEW,,0.00,821.0,WeatherDisplay:10.37,2013-08-20 20:29:00,
2013-08-20 13:34:00,81.3,63.1,29.87,SW,215,8.1,8.1,54,0.00,FEW,,0.00,819.0,WeatherDisplay:10.37,2013-08-20 20:34:00,
2013-08-20 13:39:00,81.4,62.6,29.87,West,267,6.0,6.0,53,0.00,FEW,,0.00,816.0,WeatherDisplay:10.37,2013-08-20 20:39:00,
2013-08-20 13:44:00,81.5,62.7,29.87,SSW,202,4.6,4.6,53,0.00,FEW,,0.00,814.0,WeatherDisplay:10.37,2013-08-20 20:44:00,
2013-08-20 13:49:00,81.5,62.7,29.86,WSW,252,6.9,6.9,53,0.00,FEW,,0.00,807.0,WeatherDisplay:10.37,2013-08-20 20:49:00,
2013-08-20 13:54:00,81.5,62.2,29.86,West,265,6.9,6.9,52,0.00,FEW,,0.00,805.0,WeatherDisplay:10.37,2013-08-20 20:54:00,
2013-08-20 13:59:00,81.6,62.8,29.86,WSW,252,9.2,9.2,53,0.00,SCT,,0.00,599.0,WeatherDisplay:10.37,2013-08-20 20:59:00,
2013-08-20 14:04:00,81.4,62.1,29.86,West,262,9.2,9.2,52,0.00,SCT,,0.00,712.0,WeatherDisplay:10.37,2013-08-20 21:04:00,
2013-08-20 14:09:00,81.2,61.9,29.86,WSW,254,5.8,5.8,52,0.00,FEW,,0.00,788.0,WeatherDisplay:10.37,2013-08-20 21:09:00,
2013-08-20 14:14:00,81.5,61.6,29.86,West,263,9.2,9.2,51,0.00,FEW,,0.00,782.0,WeatherDisplay:10.37,2013-08-20 21:14:00,
2013-08-20 14:19:00,81.9,62.0,29.86,WSW,251,9.2,9.2,51,0.00,FEW,,0.00,775.0,WeatherDisplay:10.37,2013-08-20 21:19:00,
2013-08-20 14:24:00,82.5,62.0,29.86,West,261,7.0,7.0,50,0.00,FEW,,0.00,772.0,WeatherDisplay:10.37,2013-08-20 21:24:00,
2013-08-20 14:29:00,82.6,62.1,29.85,WNW,289,10.0,10.0,50,0.00,FEW,,0.00,761.0,WeatherDisplay:10.37,2013-08-20 21:29:00,
2013-08-20 14:34:00,82.2,61.7,29.85,WNW,288,9.2,9.2,50,0.00,FEW,,0.00,756.0,WeatherDisplay:10.37,2013-08-20 21:34:00,
2013-08-20 14:39:00,82.4,61.9,29.85,WNW,300,8.1,8.1,50,0.00,FEW,,0.00,747.0,WeatherDisplay:10.37,2013-08-20 21:39:00,
2013-08-20 14:44:00,82.2,61.7,29.85,WSW,248,6.9,6.9,50,0.00,FEW,,0.00,738.0,WeatherDisplay:10.37,2013-08-20 21:44:00,
2013-08-20 14:49:00,82.9,61.8,29.85,SW,217,9.2,9.2,49,0.00,FEW,,0.00,729.0,WeatherDisplay:10.37,2013-08-20 21:49:00,
2013-08-20 14:54:00,82.8,61.1,29.85,West,261,9.2,9.2,48,0.00,FEW,,0.00,721.0,WeatherDisplay:10.37,2013-08-20 21:54:00,
2013-08-20 14:59:00,82.9,61.2,29.84,West,268,8.1,8.1,48,0.00,FEW,,0.00,714.0,WeatherDisplay:10.37,2013-08-20 21:59:00,
2013-08-20 15:04:00,83.5,61.1,29.84,SW,234,8.1,8.1,47,0.00,FEW,,0.00,705.0,WeatherDisplay:10.37,2013-08-20 22:04:00,
2013-08-20 15:09:00,84.1,61.7,29.85,West,278,6.0,6.0,47,0.00,FEW,,0.00,694.0,WeatherDisplay:10.37,2013-08-20 22:09:00,
2013-08-20 15:14:00,84.3,61.3,29.85,WSW,242,8.1,8.1,46,0.00,FEW,,0.00,684.0,WeatherDisplay:10.37,2013-08-20 22:14:00,
2013-08-20 15:19:00,83.9,60.9,29.85,West,273,8.1,8.1,46,0.00,FEW,,0.00,673.0,WeatherDisplay:10.37,2013-08-20 22:19:00,
2013-08-20 15:24:00,83.4,61.1,29.84,WSW,256,7.0,7.0,47,0.00,FEW,,0.00,661.0,WeatherDisplay:10.37,2013-08-20 22:24:00,
2013-08-20 15:29:00,84.0,61.0,29.84,WSW,250,9.2,9.2,46,0.00,FEW,,0.00,656.0,WeatherDisplay:10.37,2013-08-20 22:29:00,
2013-08-20 15:34:00,83.3,61.0,29.84,West,276,10.4,10.4,47,0.00,FEW,,0.00,645.0,WeatherDisplay:10.37,2013-08-20 22:34:00,
2013-08-20 15:39:00,82.8,61.1,29.84,WSW,252,6.0,6.0,48,0.00,FEW,,0.00,640.0,WeatherDisplay:10.37,2013-08-20 22:39:00,
2013-08-20 15:44:00,82.5,60.8,29.84,NW,311,11.5,11.5,48,0.00,FEW,,0.00,647.0,WeatherDisplay:10.37,2013-08-20 22:44:00,
2013-08-20 15:49:00,82.7,61.0,29.84,West,263,11.0,11.0,48,0.00,FEW,,0.00,654.0,WeatherDisplay:10.37,2013-08-20 22:49:00,
2013-08-20 15:54:00,82.8,61.7,29.84,SW,232,10.4,10.4,49,0.00,CLR,,0.00,629.0,WeatherDisplay:10.37,2013-08-20 22:54:00,
2013-08-20 15:59:00,82.9,61.2,29.84,West,261,8.1,8.1,48,0.00,CLR,,0.00,608.0,WeatherDisplay:10.37,2013-08-20 22:59:00,
2013-08-20 16:04:00,83.0,61.3,29.84,SSW,207,9.2,9.2,48,0.00,CLR,,0.00,605.0,WeatherDisplay:10.37,2013-08-20 23:04:00,
2013-08-20 16:09:00,83.1,61.4,29.84,SW,224,6.9,6.9,48,0.00,CLR,,0.00,592.0,WeatherDisplay:10.37,2013-08-20 23:09:00,
2013-08-20 16:14:00,83.1,60.8,29.83,WSW,246,9.2,9.2,47,0.00,CLR,,0.00,582.0,WeatherDisplay:10.37,2013-08-20 23:14:00,
2013-08-20 16:19:00,82.7,61.0,29.83,WNW,302,9.0,9.0,48,0.00,CLR,,0.00,598.0,WeatherDisplay:10.37,2013-08-20 23:19:00,
2013-08-20 16:24:00,82.3,61.2,29.83,WSW,249,6.9,6.9,49,0.00,CLR,,0.00,605.0,WeatherDisplay:10.37,2013-08-20 23:24:00,
2013-08-20 16:29:00,82.5,61.4,29.83,West,281,11.5,11.5,49,0.00,CLR,,0.00,592.0,WeatherDisplay:10.37,2013-08-20 23:29:00,
2013-08-20 16:34:00,81.2,60.8,29.83,WSW,255,10.4,10.4,50,0.00,BKN,,0.00,262.0,WeatherDisplay:10.37,2013-08-20 23:34:00,
2013-08-20 16:39:00,80.6,61.3,29.83,West,264,11.5,11.5,52,0.00,CLR,,0.00,561.0,WeatherDisplay:10.37,2013-08-20 23:39:00,
2013-08-20 16:44:00,80.8,62.1,29.83,West,267,9.0,9.0,53,0.00,CLR,,0.00,538.0,WeatherDisplay:10.37,2013-08-20 23:44:00,
2013-08-20 16:49:00,80.5,61.3,29.83,WNW,283,10.4,10.4,52,0.00,CLR,,0.00,534.0,WeatherDisplay:10.37,2013-08-20 23:49:00,
2013-08-20 16:54:00,80.0,60.8,29.83,West,265,10.4,10.4,52,0.00,FEW,,0.00,432.0,WeatherDisplay:10.37,2013-08-20 23:54:00,
2013-08-20 16:59:00,79.6,61.0,29.82,WNW,292,10.4,10.4,53,0.00,CLR,,0.00,446.0,WeatherDisplay:10.37,2013-08-20 23:59:00,
2013-08-20 17:04:00,79.7,61.1,29.82,West,265,10.4,10.4,53,0.00,CLR,,0.00,471.0,WeatherDisplay:10.37,2013-08-21 00:04:00,
2013-08-20 17:09:00,80.0,61.3,29.82,WNW,290,9.2,9.2,53,0.00,CLR,,0.00,436.0,WeatherDisplay:10.37,2013-08-21 00:09:00,
2013-08-20 17:14:00,80.2,61.5,29.82,SW,232,5.8,5.8,53,0.00,CLR,,0.00,392.0,WeatherDisplay:10.37,2013-08-21 00:14:00,
2013-08-20 17:19:00,80.4,61.2,29.82,WSW,250,11.5,11.5,52,0.00,CLR,,0.00,360.0,WeatherDisplay:10.37,2013-08-21 00:19:00,
2013-08-20 17:24:00,80.1,61.4,29.82,SW,236,8.1,8.1,53,0.00,CLR,,0.00,338.0,WeatherDisplay:10.37,2013-08-21 00:24:00,
2013-08-20 17:29:00,79.8,61.7,29.82,West,275,11.5,11.5,54,0.00,FEW,,0.00,318.0,WeatherDisplay:10.37,2013-08-21 00:29:00,
2013-08-20 17:34:00,79.3,61.2,29.82,West,259,11.5,11.5,54,0.00,FEW,,0.00,304.0,WeatherDisplay:10.37,2013-08-21 00:34:00,
2013-08-20 17:39:00,79.2,61.6,29.82,WNW,291,11.5,11.5,55,0.00,FEW,,0.00,288.0,WeatherDisplay:10.37,2013-08-21 00:39:00,
2013-08-20 17:44:00,78.8,61.8,29.82,WSW,257,10.4,10.4,56,0.00,FEW,,0.00,274.0,WeatherDisplay:10.37,2013-08-21 00:44:00,
2013-08-20 17:49:00,78.2,61.7,29.82,WSW,249,10.4,10.4,57,0.00,FEW,,0.00,258.0,WeatherDisplay:10.37,2013-08-21 00:49:00,
2013-08-20 17:54:00,77.8,61.3,29.82,WNW,291,10.4,10.4,57,0.00,FEW,,0.00,244.0,WeatherDisplay:10.37,2013-08-21 00:54:00,
2013-08-20 17:59:00,77.3,61.4,29.82,WSW,252,10.4,10.4,58,0.00,FEW,,0.00,229.0,WeatherDisplay:10.37,2013-08-21 00:59:00,
2013-08-20 18:04:00,76.9,61.5,29.82,West,270,11.5,11.5,59,0.00,FEW,,0.00,213.0,WeatherDisplay:10.37,2013-08-21 01:04:00,
2013-08-20 18:09:00,76.4,61.0,29.82,West,261,8.1,8.1,59,0.00,FEW,,0.00,197.0,WeatherDisplay:10.37,2013-08-21 01:09:00,
2013-08-20 18:14:00,76.0,61.1,29.82,WSW,255,10.4,10.4,60,0.00,FEW,,0.00,181.0,WeatherDisplay:10.37,2013-08-21 01:14:00,
2013-08-20 18:19:00,75.9,61.0,29.82,WSW,243,11.0,11.0,60,0.00,FEW,,0.00,163.0,WeatherDisplay:10.37,2013-08-21 01:19:00,
2013-08-20 18:24:00,75.3,60.9,29.82,WSW,237,6.9,6.9,61,0.00,FEW,,0.00,144.0,WeatherDisplay:10.37,2013-08-21 01:24:00,
2013-08-20 18:29:00,74.9,61.0,29.82,WNW,285,11.5,11.5,62,0.00,FEW,,0.00,130.0,WeatherDisplay:10.37,2013-08-21 01:29:00,
2013-08-20 18:34:00,74.4,60.5,29.83,West,272,9.2,9.2,62,0.00,SCT,,0.00,113.0,WeatherDisplay:10.37,2013-08-21 01:34:00,
2013-08-20 18:39:00,74.4,60.5,29.83,West,275,8.1,8.1,62,0.00,SCT,,0.00,95.0,WeatherDisplay:10.37,2013-08-21 01:39:00,
2013-08-20 18:44:00,74.2,60.8,29.82,WNW,298,11.5,11.5,63,0.00,SCT,,0.00,79.0,WeatherDisplay:10.37,2013-08-21 01:44:00,
2013-08-20 18:49:00,73.9,61.0,29.83,WNW,294,7.0,7.0,64,0.00,BKN,,0.00,30.0,WeatherDisplay:10.37,2013-08-21 01:49:00,
2013-08-20 18:54:00,73.7,60.8,29.83,West,281,10.4,10.4,64,0.00,BKN,,0.00,42.0,WeatherDisplay:10.37,2013-08-21 01:54:00,
2013-08-20 18:59:00,73.1,61.1,29.83,West,280,5.8,5.8,66,0.00,BKN,,0.00,25.0,WeatherDisplay:10.37,2013-08-21 01:59:00,
2013-08-20 19:04:00,73.0,61.0,29.83,West,278,9.2,9.2,66,0.00,BKN,,0.00,32.0,WeatherDisplay:10.37,2013-08-21 02:04:00,
2013-08-20 19:09:00,72.8,61.2,29.83,West,265,6.9,6.9,67,0.00,BKN,,0.00,23.0,WeatherDisplay:10.37,2013-08-21 02:09:00,
2013-08-20 19:14:00,72.7,61.1,29.83,West,273,6.9,6.9,67,0.00,BKN,,0.00,14.0,WeatherDisplay:10.37,2013-08-21 02:14:00,
2013-08-20 19:19:00,72.3,61.1,29.83,WNW,289,7.0,7.0,68,0.00,BKN,,0.00,11.0,WeatherDisplay:10.37,2013-08-21 02:19:00,
2013-08-20 19:24:00,71.9,60.8,29.83,SW,229,5.8,5.8,68,0.00,BKN,,0.00,7.0,WeatherDisplay:10.37,2013-08-21 02:24:00,
2013-08-20 19:29:00,71.4,60.7,29.84,WNW,298,8.1,8.1,69,0.00,BKN,,0.00,5.0,WeatherDisplay:10.37,2013-08-21 02:29:00,
2013-08-20 19:34:00,71.1,60.8,29.84,WNW,285,8.0,8.0,70,0.00,CLR,,0.00,0.0,WeatherDisplay:10.37,2013-08-21 02:34:00,
2013-08-20 19:39:00,70.9,60.6,29.84,WNW,288,6.9,6.9,70,0.00,CLR,,0.00,0.0,WeatherDisplay:10.37,2013-08-21 02:39:00,
2013-08-20 19:44:00,70.8,60.5,29.84,West,266,8.0,8.0,70,0.00,CLR,,0.00,0.0,WeatherDisplay:10.37,2013-08-21 02:44:00,
2013-08-20 19:49:00,70.5,60.6,29.84,West,277,6.9,6.9,71,0.00,CLR,,0.00,0.0,WeatherDisplay:10.37,2013-08-21 02:49:00,
2013-08-20 19:54:00,70.3,60.4,29.84,West,279,4.6,4.6,71,0.00,CLR,,0.00,0.0,WeatherDisplay:10.37,2013-08-21 02:54:00,
2013-08-20 19:59:00,70.1,60.7,29.84,WSW,256,4.0,4.0,72,0.00,CLR,,0.00,0.0,WeatherDisplay:10.37,2013-08-21 02:59:00,
2013-08-20 20:04:00,69.9,60.5,29.85,West,272,6.9,6.9,72,0.00,CLR,,0.00,0.0,WeatherDisplay:10.37,2013-08-21 03:04:00,
2013-08-20 20:09:00,69.8,60.8,29.85,WNW,294,4.6,4.6,73,0.00,CLR,,0.00,0.0,WeatherDisplay:10.37,2013-08-21 03:09:00,
2013-08-20 20:14:00,69.7,61.0,29.85,WNW,295,4.6,4.6,74,0.00,CLR,,0.00,0.0,WeatherDisplay:10.37,2013-08-21 03:14:00,
2013-08-20 20:19:00,69.5,60.5,29.85,WNW,288,6.9,6.9,73,0.00,CLR,,0.00,0.0,WeatherDisplay:10.37,2013-08-21 03:19:00,
2013-08-20 20:24:00,69.3,60.7,29.85,West,279,4.6,4.6,74,0.00,CLR,,0.00,0.0,WeatherDisplay:10.37,2013-08-21 03:24:00,
2013-08-20 20:29:00,69.0,60.4,29.85,West,272,6.0,6.0,74,0.00,CLR,,0.00,0.0,WeatherDisplay:10.37,2013-08-21 03:29:00,
2013-08-20 20:34:00,68.8,60.2,29.86,West,281,6.9,6.9,74,0.00,CLR,,0.00,0.0,WeatherDisplay:10.37,2013-08-21 03:34:00,
2013-08-20 20:39:00,68.6,60.0,29.86,NW,322,5.8,5.8,74,0.00,CLR,,0.00,0.0,WeatherDisplay:10.37,2013-08-21 03:39:00,
2013-08-20 20:44:00,68.3,60.1,29.86,WNW,286,6.9,6.9,75,0.00,CLR,,0.00,0.0,WeatherDisplay:10.37,2013-08-21 03:44:00,
2013-08-20 20:49:00,68.0,60.2,29.86,West,280,7.0,7.0,76,0.00,CLR,,0.00,0.0,WeatherDisplay:10.37,2013-08-21 03:49:00,
2013-08-20 20:54:00,67.9,60.1,29.87,West,281,6.0,6.0,76,0.00,CLR,,0.00,0.0,WeatherDisplay:10.37,2013-08-21 03:54:00,
2013-08-20 20:59:00,67.8,60.0,29.87,WNW,284,8.1,8.1,76,0.00,CLR,,0.00,0.0,WeatherDisplay:10.37,2013-08-21 03:59:00,
2013-08-20 21:01:00,67.7,59.9,29.87,WNW,286,5.0,5.0,76,0.00,CLR,,0.00,0.0,WeatherDisplay:10.37,2013-08-21 04:01:00,
2013-08-20 21:02:00,67.6,60.1,29.87,West,273,5.8,5.8,77,0.00,CLR,,0.00,0.0,WeatherDisplay:10.37,2013-08-21 04:02:00,
2013-08-20 21:07:00,67.4,59.9,29.87,WNW,284,5.8,5.8,77,0.00,CLR,,0.00,0.0,WeatherDisplay:10.37,2013-08-21 04:07:00,
2013-08-20 21:12:00,67.4,59.9,29.87,West,275,5.8,5.8,77,0.00,CLR,,0.00,0.0,WeatherDisplay:10.37,2013-08-21 04:12:00,
2013-08-20 21:17:00,67.4,59.9,29.88,West,275,4.6,4.6,77,0.00,CLR,,0.00,0.0,WeatherDisplay:10.37,2013-08-21 04:17:00,
2013-08-20 21:22:00,67.3,59.8,29.88,West,276,6.0,6.0,77,0.00,CLR,,0.00,0.0,WeatherDisplay:10.37,2013-08-21 04:22:00,
2013-08-20 21:27:00,67.1,60.0,29.88,WNW,286,5.8,5.8,78,0.00,CLR,,0.00,0.0,WeatherDisplay:10.37,2013-08-21 04:27:00,
2013-08-20 21:32:00,67.0,59.9,29.88,West,279,4.6,4.6,78,0.00,CLR,,0.00,0.0,WeatherDisplay:10.37,2013-08-21 04:32:00,
2013-08-20 21:37:00,67.0,59.9,29.88,West,281,5.0,5.0,78,0.00,CLR,,0.00,0.0,WeatherDisplay:10.37,2013-08-21 04:37:00,
2013-08-20 21:42:00,66.9,59.8,29.88,WNW,286,4.6,4.6,78,0.00,CLR,,0.00,0.0,WeatherDisplay:10.37,2013-08-21 04:42:00,
2013-08-20 21:47:00,66.8,60.1,29.88,West,279,5.0,5.0,79,0.00,CLR,,0.00,0.0,WeatherDisplay:10.37,2013-08-21 04:47:00,
2013-08-20 21:52:00,66.7,60.0,29.88,West,281,5.8,5.8,79,0.00,CLR,,0.00,0.0,WeatherDisplay:10.37,2013-08-21 04:52:00,
2013-08-20 21:57:00,66.6,59.9,29.88,West,275,4.6,4.6,79,0.00,CLR,,0.00,0.0,WeatherDisplay:10.37,2013-08-21 04:57:00,
2013-08-20 22:02:00,66.5,60.1,29.88,WNW,288,4.6,4.6,80,0.00,CLR,,0.00,0.0,WeatherDisplay:10.37,2013-08-21 05:02:00,
2013-08-20 22:07:00,66.4,60.0,29.89,WNW,288,3.5,3.5,80,0.00,CLR,,0.00,0.0,WeatherDisplay:10.37,2013-08-21 05:07:00,
2013-08-20 22:12:00,66.4,60.0,29.88,WNW,288,3.5,3.5,80,0.00,CLR,,0.00,0.0,WeatherDisplay:10.37,2013-08-21 05:12:00,
2013-08-20 22:17:00,66.5,60.1,29.89,WNW,288,5.0,5.0,80,0.00,CLR,,0.00,0.0,WeatherDisplay:10.37,2013-08-21 05:17:00,
2013-08-20 22:22:00,66.4,60.0,29.88,WNW,288,4.0,4.0,80,0.00,CLR,,0.00,0.0,WeatherDisplay:10.37,2013-08-21 05:22:00,
2013-08-20 22:27:00,66.4,60.0,29.88,WNW,288,4.0,4.0,80,0.00,CLR,,0.00,0.0,WeatherDisplay:10.37,2013-08-21 05:27:00,
2013-08-20 22:32:00,66.3,59.9,29.89,WNW,287,4.6,4.6,80,0.00,CLR,,0.00,0.0,WeatherDisplay:10.37,2013-08-21 05:32:00,
2013-08-20 22:37:00,66.3,59.9,29.89,WNW,287,4.0,4.0,80,0.00,CLR,,0.00,0.0,WeatherDisplay:10.37,2013-08-21 05:37:00,
2013-08-20 22:42:00,66.2,59.8,29.89,WNW,285,4.0,4.0,80,0.00,CLR,,0.00,0.0,WeatherDisplay:10.37,2013-08-21 05:42:00,
2013-08-20 22:47:00,66.1,59.7,29.89,WNW,285,3.5,3.5,80,0.00,CLR,,0.00,0.0,WeatherDisplay:10.37,2013-08-21 05:47:00,
2013-08-20 22:52:00,66.1,59.7,29.89,WNW,282,4.6,4.6,80,0.00,CLR,,0.00,0.0,WeatherDisplay:10.37,2013-08-21 05:52:00,
2013-08-20 22:57:00,66.0,59.7,29.89,WNW,282,3.5,3.5,80,0.00,CLR,,0.00,0.0,WeatherDisplay:10.37,2013-08-21 05:57:00,
2013-08-20 23:02:00,66.0,60.0,29.89,WNW,282,4.6,4.6,81,0.00,CLR,,0.00,0.0,WeatherDisplay:10.37,2013-08-21 06:02:00,
2013-08-20 23:07:00,66.0,60.0,29.89,West,281,4.6,4.6,81,0.00,CLR,,0.00,0.0,WeatherDisplay:10.37,2013-08-21 06:07:00,
2013-08-20 23:12:00,66.0,60.0,29.89,West,281,4.0,4.0,81,0.00,CLR,,0.00,0.0,WeatherDisplay:10.37,2013-08-21 06:12:00,
2013-08-20 23:17:00,65.9,59.9,29.89,West,280,5.0,5.0,81,0.00,CLR,,0.00,0.0,WeatherDisplay:10.37,2013-08-21 06:17:00,
2013-08-20 23:22:00,65.9,59.9,29.89,West,279,4.0,4.0,81,0.00,CLR,,0.00,0.0,WeatherDisplay:10.37,2013-08-21 06:22:00,
2013-08-20 23:27:00,65.9,59.9,29.89,West,279,4.0,4.0,81,0.00,CLR,,0.00,0.0,WeatherDisplay:10.37,2013-08-21 06:27:00,
2013-08-20 23:32:00,65.9,59.9,29.89,West,279,3.0,3.0,81,0.00,CLR,,0.00,0.0,WeatherDisplay:10.37,2013-08-21 06:32:00,
2013-08-20 23:37:00,65.8,59.8,29.89,West,279,3.5,3.5,81,0.00,CLR,,0.00,0.0,WeatherDisplay:10.37,2013-08-21 06:37:00,
2013-08-20 23:42:00,65.7,60.1,29.89,West,279,2.0,2.0,82,0.00,CLR,,0.00,0.0,WeatherDisplay:10.37,2013-08-21 06:42:00,
2013-08-20 23:47:00,65.6,60.0,29.89,West,280,4.6,4.6,82,0.00,CLR,,0.00,0.0,WeatherDisplay:10.37,2013-08-21 06:47:00,
2013-08-20 23:52:00,65.6,60.0,29.90,West,280,3.5,3.5,82,0.00,CLR,,0.00,0.0,WeatherDisplay:10.37,2013-08-21 06:52:00,
2013-08-20 23:57:00,65.5,59.9,29.90,West,279,3.5,3.5,82,0.00,CLR,,0.00,0.0,WeatherDisplay:10.37,2013-08-21 06:57:00,